Details From DTTA - CARTHAGE
To LIMJ - Genova Sestri
Flight Number -
Tags None
Created
Modified
Stats Distance 462 nm / 855 km
Max Altitude 15,000 ft / 4,572 m
Waypoints 5
Social Downloads 3
Likes 0
Share VATSIM

Download

Looking for another format? Having issues loading an existing format? Contact us
Advertisement - Login to hide

Notes

None

Route

DTTA CAR SME BTA LIMJ

ID Type Via Altitude Latitude Longitude Leg Dist Tot Dist Heading (true) Name
O DTTA APT - 22 ft / 7 m 36.85126˚ 10.23003˚ - 0 nm - CARTHAGE
CAR VOR - 15,000 ft / 4,572 m 39.11139˚ 9.50806˚ 139 nm 139 nm 346° / 346° CARBONARA VOR-DME
SME VOR - 15,000 ft / 4,572 m 40.88993˚ 9.50115˚ 106 nm 246 nm 360° / 360° SMERALDA VOR-DME
BTA VOR - 15,000 ft / 4,572 m 42.57369˚ 9.47459˚ 101 nm 347 nm 359° / 359° BASTIA PORETTA VOR-DME
O LIMJ APT - 2,000 ft / 610 m 44.41196˚ 8.84187˚ 113 nm 461 nm 346° / 346° Genova Sestri

Altitude Profile

Advertisement - Login to hide

Weather


0- 5 10 15 20 25 30 35+ Temperature / ° C

Clouds and Precipitation
Forecast for 2018-05-21 12:00 UTC. Updated 2 hours ago

Ground ~20,000 ft ~40,000 ft Winds

DTTA

Details ICAO DTTA (TUN)
Name CARTHAGE
Region Tunisia
Timezone Africa/Tunis (UTC+1.0)
Stats Elevation 22 ft / 7 m (AMSL)
Location 36.851267° 10.230027°
Runways 2
Magnetic Variation 2.445° E

METAR

DTTA 211300Z 06006KT 020V110 9999 FEW020 24/17 Q1010 NOSIG

Decode

TAF

TAF DTTA 211100Z 2112/2212 05008KT 9999 FEW020 SCT033 PROB40 TEMPO 2115/2120 4000 -TSRA FEW020 FEW026CB SCT033

Decode

Departure Runways

ID Width Length Bearing (true) Bearing (mag) Surface Threshold Offset Overrun Length
01 148 ft / 45 m 10,502 ft / 3,201 m 12.29° 9.85° Asphalt 0 ft / 0 m 197 ft / 60 m
11 148 ft / 45 m 9,345 ft / 2,848 m 112.55° 110.11° Asphalt 0 ft / 0 m 643 ft / 196 m
19 148 ft / 45 m 10,502 ft / 3,201 m 192.29° 189.85° Asphalt 0 ft / 0 m 197 ft / 60 m
29 148 ft / 45 m 9,345 ft / 2,848 m 292.57° 290.13° Asphalt 657 ft / 200 m 197 ft / 60 m

LIMJ

Details ICAO LIMJ (GOA)
Name Genova Sestri
Region Italy
Timezone Unknown (UTC+0.0)
Stats Elevation 13 ft / 4 m (AMSL)
Location 44.411957° 8.841866°
Runways 1
Magnetic Variation 2.437° E

METAR

LIMJ 211250Z 35011KT 310V030 9999 FEW030TCU 25/14 Q1012

Decode

TAF

TAF LIMJ 211100Z 2112/2212 03010KT 9999 SCT030 TEMPO 2112/2118 TSRA BECMG 2122/2124 RA

Decode

Destination Runways

ID Width Length Bearing (true) Bearing (mag) Surface Threshold Offset Overrun Length
10 148 ft / 45 m 9,574 ft / 2,918 m 105.39° 102.95° Asphalt 0 ft / 0 m 0 ft / 0 m
28 148 ft / 45 m 9,574 ft / 2,918 m 285.41° 282.97° Asphalt 538 ft / 164 m 0 ft / 0 m

Approach Navaids

Runway Type Ident Frequency Range Bearing (true) Bearing (mag) Slope Elevation
28 Localiser GSE 109.30 MHz 18 nm / 33 km 287.30° 284.87° - 9 ft / 3 m (AMSL)
28 Glidescope GSE 109.30 MHz 10 nm / 19 km 287.30° 284.87° 3.17° 26 ft / 8 m (AMSL)
28 DME GSE 109.30 MHz 18 nm / 33 km - - - 26 ft / 8 m (AMSL)

Popular Alternatives